Airfield :
LOGIN :

Register | Disclaimer

   EN    FR    IT 

 










Legend :    VFR   Marginal VFR   IFR   Intensive IFR   Very Intensive IFR
Visi :
Ceiling :
>= 8 km
>= 3000ft
5 to 8 km
1000 to 3000 ft
1500m to 5 km
500 to 1000 ft
800 to 1500m
200 to 500 ft
< 800m
< 200 ft
Symbols :   Thunderstorms  Fog  Heavy snow  Heavy precipitations  Wind > 20 kt
SIGMETs :     Misc.  Thunderstorms  Icing  Turbulence  Mountain Waves  Volcanic Ashes






- Airport Elevation : 36 ft
- IATA code : LTQ


LFAT - Le Touquet

CURRENT METAR :
  • 232230Z AUTO 13008KT CAVOK 14/13 Q1006

EXPIRED METARs :
  • 232200Z AUTO 13009KT CAVOK 14/13 Q1006
  • 232130Z AUTO 13009KT CAVOK 14/13 Q1006
  • 232100Z AUTO 12008KT CAVOK 14/13 Q1006
  • 232030Z AUTO 12008KT CAVOK 14/13 Q1006
  • 232000Z AUTO 12009KT 9000 NSC 14/13 Q1007

TAF TAF LFAT
Valid from the 23 at 15:00 until the 24 at 00:00 UTC


231400Z 2315/2324 10007KT 9000 SCT015 BKN100
PROB30
TEMPO 2315/2319 BKN013
BECMG 2322/2324 3000 BR BKN008
ATIS : +33 3 21 06 62 84



MET'MAP, your aeronautical weather chart ! - Copyright ORBIFLY December 2007 - Disclaimer

ORBIFLY MET'MAP TEAM :

Programming & Development : Alexandra Zaïnal
Concept & Development : Baudouin d'Aumeries
Co-Development & Prog : Marc-Olivier Méhu
Technical & hardware support : Manuel Goepfert

Contact : metmap@orbifly.com




SOURCES & CREDITS :

   NOAA